Time;durP1;ratioP1;P1;durP2;ratioP2;P2;SDS_P1;SDS_P2;PMS_P1;PMS_P2;Temp;Humidity;BMP_temperature;BMP_pressure;BME280_temperature;BME280_humidity;BME280_pressure;Samples;Min_cycle;Max_cycle;Signal;HPM_P1;HPM_P2
2022/01/20 00:00:18;;;;;;;47.47;16.52;;;;;;;-2.91;56.36;94551.72;5023101;28;20261;-76
2022/01/20 00:02:46;;;;;;;53.17;16.35;;;;;;;-2.93;56.41;94560.75;5022981;28;20276;-76
2022/01/20 00:05:30;;;;;;;39.17;14.80;;;;;;;-2.92;56.11;94557.16;5022968;28;20025;-75
2022/01/20 00:26:53;;;;;;;25.80;10.68;;;;;;;-3.02;56.09;94542.75;5024064;28;20068;-75
2022/01/20 00:29:25;;;;;;;29.77;11.27;;;;;;;-3.08;56.45;94527.94;5022505;28;20021;-75
2022/01/20 00:32:07;;;;;;;;;;;;;;;-3.03;55.98;94533.34;5022935;28;20064;-75
2022/01/20 00:35:08;;;;;;;22.63;9.65;;;;;;;-3.09;56.62;94533.41;5022909;28;19906;-75
2022/01/20 00:37:30;;;;;;;25.42;9.07;;;;;;;-3.17;56.79;94521.41;5022472;28;20105;-75
2022/01/20 00:39:58;;;;;;;29.27;10.25;;;;;;;-3.11;56.51;94528.38;5022479;28;20022;-75
2022/01/20 00:42:24;;;;;;;32.17;12.07;;;;;;;-3.09;57.12;94528.97;5022512;28;20101;-75
2022/01/20 00:44:50;;;;;;;36.58;11.82;;;;;;;-3.16;57.04;94523.00;5022399;28;20018;-75
2022/01/20 00:47:17;;;;;;;27.25;10.90;;;;;;;-3.10;57.49;94524.75;5022558;28;20197;-75
2022/01/20 00:49:43;;;;;;;30.42;12.88;;;;;;;-3.10;57.19;94518.75;5022447;28;20141;-74
2022/01/20 00:52:09;;;;;;;35.58;12.90;;;;;;;-3.07;57.09;94529.56;5037599;28;20105;-75
2022/01/20 00:54:35;;;;;;;33.35;11.63;;;;;;;-3.09;57.33;94522.97;5022358;28;20320;-75
2022/01/20 00:57:01;;;;;;;30.88;11.57;;;;;;;-3.11;57.62;94525.00;5022651;28;20093;-75
2022/01/20 00:59:29;;;;;;;31.38;12.57;;;;;;;-3.09;57.66;94507.31;5022394;28;20049;-75
2022/01/20 01:01:56;;;;;;;31.50;10.95;;;;;;;-3.05;57.73;94518.94;5022211;28;20018;-75
2022/01/20 01:04:21;;;;;;;34.15;10.70;;;;;;;-3.02;57.48;94514.06;5022271;28;20040;-75
2022/01/20 01:09:18;;;;;;;29.13;10.00;;;;;;;-3.03;57.27;94517.69;5022129;28;20354;-75
2022/01/20 01:11:46;;;;;;;26.38;9.82;;;;;;;-3.02;57.10;94519.28;5022152;28;20300;-77
2022/01/20 01:14:12;;;;;;;32.17;10.77;;;;;;;-3.00;57.21;94524.28;5022148;28;20053;-77
2022/01/20 01:24:41;;;;;;;32.47;12.43;;;;;;;-2.98;57.26;94509.22;5022986;28;20026;-77
2022/01/20 01:27:09;;;;;;;31.67;11.57;;;;;;;-2.98;57.33;94496.19;5025707;28;20022;-77
2022/01/20 01:29:57;;;;;;;35.20;13.32;;;;;;;-2.97;57.35;94507.41;5025735;28;20104;-77
2022/01/20 01:32:24;;;;;;;35.17;13.18;;;;;;;-2.99;57.81;94497.22;5025607;28;20029;-77
2022/01/20 01:34:52;;;;;;;36.42;12.55;;;;;;;-3.01;57.44;94499.25;5025673;28;20347;-77
2022/01/20 01:38:23;;;;;;;28.55;12.60;;;;;;;-3.03;57.75;94496.03;5025589;28;20030;-75
2022/01/20 01:40:12;;;;;;;29.85;13.27;;;;;;;-3.02;57.81;94487.19;5025255;28;20034;-75
2022/01/20 01:42:45;;;;;;;29.50;12.52;;;;;;;-3.01;57.54;94486.19;5025418;28;20049;-78
2022/01/20 01:45:33;;;;;;;27.33;11.75;;;;;;;-3.06;57.80;94486.81;5025568;28;20026;-77
2022/01/20 01:48:00;;;;;;;35.20;11.70;;;;;;;-3.10;58.09;94479.63;5025427;28;20037;-77
2022/01/20 01:50:26;;;;;;;32.78;11.18;;;;;;;-3.07;57.69;94481.81;5025122;28;20080;-77
2022/01/20 01:52:54;;;;;;;31.17;11.18;;;;;;;-3.07;57.62;94476.63;5025308;28;20308;-77
2022/01/20 01:55:20;;;;;;;23.98;10.90;;;;;;;-3.06;57.85;94480.81;5025281;28;20083;-77
2022/01/20 01:57:46;;;;;;;32.15;12.50;;;;;;;-3.06;57.88;94472.97;5025066;28;20064;-77
2022/01/20 02:00:13;;;;;;;28.02;10.93;;;;;;;-3.06;58.12;94465.94;5023824;28;20042;-77
2022/01/20 02:02:40;;;;;;;33.15;11.77;;;;;;;-3.07;57.66;94458.34;5025118;28;20041;-77
2022/01/20 02:05:08;;;;;;;29.13;12.10;;;;;;;-3.08;57.83;94461.97;5025053;28;20029;-77
2022/01/20 02:20:44;;;;;;;42.22;12.60;;;;;;;-3.30;58.77;94451.09;5024942;28;20029;-75
2022/01/20 02:23:09;;;;;;;29.67;12.45;;;;;;;-3.29;58.31;94450.09;5024602;28;20025;-76
2022/01/20 02:25:37;;;;;;;30.23;13.27;;;;;;;-3.36;58.67;94436.31;5040091;28;20258;-76
2022/01/20 02:28:08;;;;;;;30.60;13.02;;;;;;;-3.36;58.74;94441.53;5024682;28;20064;-75
2022/01/20 02:30:35;;;;;;;33.87;14.00;;;;;;;-3.36;59.03;94428.47;5024659;28;20270;-76
2022/01/20 02:33:06;;;;;;;30.63;11.77;;;;;;;-3.35;58.51;94428.28;5039914;28;20669;-75
2022/01/20 02:35:35;;;;;;;33.80;13.20;;;;;;;-3.35;58.47;94428.28;5022993;28;20101;-76
2022/01/20 02:38:16;;;;;;;33.33;12.10;;;;;;;-3.34;58.31;94426.47;5024646;28;20061;-76
2022/01/20 02:45:58;;;;;;;21.77;10.15;;;;;;;-3.38;57.63;94425.28;5026197;28;20048;-76
2022/01/20 02:48:25;;;;;;;24.48;9.45;;;;;;;-3.39;57.78;94424.50;5024174;28;20087;-75
2022/01/20 02:50:50;;;;;;;28.58;10.82;;;;;;;-3.45;57.77;94418.31;5024046;28;20033;-75
2022/01/20 02:53:16;;;;;;;25.40;10.60;;;;;;;-3.46;57.80;94414.13;5039409;28;20089;-76
2022/01/20 02:55:41;;;;;;;28.80;12.05;;;;;;;-3.42;57.52;94417.09;5024079;28;20025;-76
2022/01/20 02:58:07;;;;;;;22.00;9.30;;;;;;;-3.46;57.76;94419.34;5024036;28;20022;-75
2022/01/20 03:00:34;;;;;;;30.42;10.98;;;;;;;-3.48;58.01;94416.16;5023984;28;20064;-75
2022/01/20 03:03:03;;;;;;;29.25;10.90;;;;;;;-3.51;58.19;94418.38;5023722;28;20030;-75
2022/01/20 03:05:33;;;;;;;26.95;10.80;;;;;;;-3.52;58.05;94404.56;5024000;28;20025;-75
2022/01/20 03:08:00;;;;;;;26.67;9.77;;;;;;;-3.51;58.05;94410.56;5023968;28;20045;-75
2022/01/20 03:10:28;;;;;;;21.35;9.63;;;;;;;-3.49;57.81;94398.91;5023825;28;20106;-75
2022/01/20 03:12:55;;;;;;;28.25;10.10;;;;;;;-3.51;58.09;94405.34;5023481;28;20069;-75
2022/01/20 03:15:21;;;;;;;24.33;9.55;;;;;;;-3.52;57.98;94408.94;5023771;28;20052;-75
2022/01/20 03:17:47;;;;;;;23.40;9.32;;;;;;;-3.51;58.16;94397.53;5023669;28;20026;-75
2022/01/20 03:20:12;;;;;;;30.27;8.48;;;;;;;-3.52;58.22;94412.38;5023725;28;20359;-75
2022/01/20 03:22:38;;;;;;;26.95;10.40;;;;;;;-3.49;58.30;94413.75;5023242;28;20025;-74
2022/01/20 03:25:03;;;;;;;26.48;9.80;;;;;;;-3.47;58.02;94391.69;5023865;28;20041;-75
2022/01/20 03:27:29;;;;;;;25.92;9.88;;;;;;;-3.51;57.83;94406.13;5023563;28;20014;-74
2022/01/20 03:29:54;;;;;;;29.52;11.20;;;;;;;-3.56;58.32;94403.38;5023613;28;20169;-75
2022/01/20 03:32:20;;;;;;;22.17;10.57;;;;;;;-3.56;58.53;94403.38;5023414;28;20022;-75
2022/01/20 03:34:45;;;;;;;27.65;10.93;;;;;;;-3.53;58.45;94407.38;5038488;28;20029;-75
2022/01/20 03:37:11;;;;;;;28.13;10.40;;;;;;;-3.53;58.09;94400.34;5023477;28;20101;-76
2022/01/20 03:39:36;;;;;;;38.88;10.63;;;;;;;-3.54;58.33;94405.75;5023371;28;20021;-76
2022/01/20 03:42:02;;;;;;;28.23;10.88;;;;;;;-3.60;58.56;94397.00;5023371;28;20014;-77
2022/01/20 03:44:28;;;;;;;30.80;11.60;;;;;;;-3.60;58.71;94389.19;5038168;28;20316;-77
2022/01/20 03:46:53;;;;;;;27.35;11.82;;;;;;;-3.61;58.75;94398.00;5022648;28;20028;-77
2022/01/20 03:49:40;;;;;;;28.50;12.07;;;;;;;-3.63;58.74;94397.41;5022989;28;20037;-77
2022/01/20 03:52:06;;;;;;;30.10;11.95;;;;;;;-3.75;59.05;94380.88;5023057;28;20021;-77
2022/01/20 03:54:33;;;;;;;26.77;11.73;;;;;;;-3.73;59.04;94386.66;5023322;28;20068;-77
2022/01/20 03:56:58;;;;;;;31.98;12.48;;;;;;;-3.67;59.13;94385.81;5023113;28;20124;-77
2022/01/20 03:59:24;;;;;;;33.70;12.10;;;;;;;-3.68;58.86;94379.81;5022978;28;20038;-76
2022/01/20 04:01:49;;;;;;;26.00;11.25;;;;;;;-3.65;58.55;94386.41;5021802;28;20034;-76
2022/01/20 04:04:15;;;;;;;33.78;11.73;;;;;;;-3.67;58.59;94380.59;5022965;28;20030;-77
2022/01/20 04:06:41;;;;;;;44.15;12.57;;;;;;;-3.67;58.08;94378.00;5023068;28;20072;-77
2022/01/20 04:09:06;;;;;;;36.63;12.55;;;;;;;-3.70;58.22;94386.25;5023014;28;20045;-76
2022/01/20 04:11:31;;;;;;;29.83;11.13;;;;;;;-3.69;58.76;94386.03;5022969;28;20025;-77
2022/01/20 04:13:57;;;;;;;31.60;11.68;;;;;;;-3.70;57.99;94376.63;5021175;28;20327;-77
2022/01/20 04:16:34;;;;;;;25.85;11.23;;;;;;;-3.70;58.19;94378.44;5021642;28;20032;-77
2022/01/20 04:19:02;;;;;;;32.53;12.15;;;;;;;-3.74;58.48;94375.44;5022807;28;20056;-77
2022/01/20 04:21:30;;;;;;;27.63;11.35;;;;;;;-3.73;58.57;94373.63;5021465;28;20033;-77
2022/01/20 04:23:57;;;;;;;39.20;11.45;;;;;;;-3.79;58.58;94379.69;5037850;28;20296;-77
2022/01/20 04:26:23;;;;;;;29.80;10.77;;;;;;;-3.81;58.67;94368.69;5022549;28;20025;-76
2022/01/20 04:28:53;;;;;;;24.85;10.70;;;;;;;-3.76;59.08;94366.25;5022644;28;20181;-76
2022/01/20 04:31:23;;;;;;;28.40;11.25;;;;;;;-3.85;59.14;94370.91;5022640;28;20083;-76
2022/01/20 04:33:49;;;;;;;29.10;11.60;;;;;;;-3.80;58.94;94383.31;5022570;28;20301;-77
2022/01/20 04:36:15;;;;;;;32.92;9.95;;;;;;;-3.84;58.98;94370.69;5022822;28;20026;-77
2022/01/20 04:38:40;;;;;;;23.27;10.70;;;;;;;-3.86;59.24;94377.94;5037821;28;20378;-77
2022/01/20 04:41:06;;;;;;;34.22;11.07;;;;;;;-3.81;59.35;94363.47;5022721;28;20030;-75
2022/01/20 04:43:31;;;;;;;25.55;10.95;;;;;;;-3.79;59.08;94364.06;5022427;28;20033;-76
2022/01/20 04:46:17;;;;;;;22.67;11.13;;;;;;;-3.79;59.42;94377.09;5022759;28;20028;-76
2022/01/20 04:59:27;;;;;;;32.45;11.95;;;;;;;-3.79;58.90;94366.66;5024653;28;20322;-75
2022/01/20 05:01:52;;;;;;;25.35;11.80;;;;;;;-3.79;59.13;94372.66;5026114;28;20029;-75
2022/01/20 05:04:18;;;;;;;25.45;11.18;;;;;;;-3.74;58.95;94366.84;5026020;28;20022;-76
2022/01/20 05:06:45;;;;;;;38.35;11.57;;;;;;;-3.72;58.82;94372.63;5026173;28;20022;-76
2022/01/20 05:09:17;;;;;;;32.30;10.57;;;;;;;-3.74;58.90;94374.66;5026163;28;20097;-76
2022/01/20 05:11:47;;;;;;;21.45;10.05;;;;;;;-3.79;58.96;94371.88;5026732;28;20097;-76
2022/01/20 05:14:12;;;;;;;23.75;10.88;;;;;;;-3.78;58.89;94361.25;5025729;28;20061;-76
2022/01/20 05:16:38;;;;;;;32.08;11.13;;;;;;;-3.78;58.86;94363.06;5025806;28;20277;-76
2022/01/20 05:19:03;;;;;;;25.58;10.55;;;;;;;-3.80;58.91;94365.09;5026170;28;20072;-76
2022/01/20 05:21:29;;;;;;;33.28;9.32;;;;;;;-3.75;58.74;94360.03;5025816;28;20018;-77
2022/01/20 05:23:54;;;;;;;22.45;9.52;;;;;;;-3.74;58.35;94359.03;5025360;28;20026;-77
2022/01/20 05:26:20;;;;;;;27.23;10.18;;;;;;;-3.70;58.28;94373.22;5025702;28;20076;-76
2022/01/20 05:28:45;;;;;;;21.83;10.10;;;;;;;-3.73;58.45;94364.00;5025759;28;20129;-76
2022/01/20 05:31:11;;;;;;;24.98;10.43;;;;;;;-3.74;58.20;94372.06;5025479;28;20332;-75
2022/01/20 05:33:36;;;;;;;27.15;9.77;;;;;;;-3.74;58.11;94364.25;5024408;28;20033;-75
2022/01/20 05:36:02;;;;;;;25.80;10.07;;;;;;;-3.76;58.36;94369.66;5025898;28;20028;-75
2022/01/20 05:38:27;;;;;;;26.15;9.20;;;;;;;-3.74;58.49;94370.25;5025463;28;20332;-75
2022/01/20 05:40:53;;;;;;;28.17;10.40;;;;;;;-3.79;58.28;94370.06;5025464;28;20258;-75
2022/01/20 05:43:19;;;;;;;27.63;10.57;;;;;;;-3.78;58.29;94368.28;5025149;28;20236;-75
2022/01/20 05:45:45;;;;;;;26.80;9.75;;;;;;;-3.79;57.60;94371.88;5040448;28;20036;-75
2022/01/20 05:48:16;;;;;;;35.95;12.00;;;;;;;-3.84;58.04;94364.69;5025258;28;20021;-75
2022/01/20 05:50:42;;;;;;;35.23;12.53;;;;;;;-3.86;58.91;94370.13;5025106;28;20074;-75
2022/01/20 05:53:08;;;;;;;25.45;9.35;;;;;;;-3.84;58.34;94385.53;5025130;28;20018;-75
2022/01/20 05:55:35;;;;;;;31.77;12.07;;;;;;;-3.93;58.39;94360.75;5025133;28;20026;-75
2022/01/20 05:58:01;;;;;;;27.42;11.50;;;;;;;-3.91;58.45;94380.38;5025262;28;20025;-75
2022/01/20 06:00:27;;;;;;;30.52;12.05;;;;;;;-3.92;58.84;94368.34;5025155;28;20029;-74
2022/01/20 06:03:38;;;;;;;33.10;12.25;;;;;;;-3.95;59.84;94373.97;5025027;28;20028;-77
2022/01/20 06:05:40;;;;;;;38.78;11.02;;;;;;;-3.91;59.20;94369.13;5027788;28;20088;-76
2022/01/20 06:08:06;;;;;;;39.58;13.02;;;;;;;-3.90;59.15;94366.34;5025066;28;20021;-78
2022/01/20 06:10:32;;;;;;;43.30;18.40;;;;;;;-3.89;58.65;94377.53;5024212;28;20088;-77
2022/01/20 06:12:58;;;;;;;47.85;15.80;;;;;;;-3.92;58.67;94377.97;5024447;28;20228;-76
2022/01/20 06:15:24;;;;;;;36.75;14.50;;;;;;;-3.94;58.61;94370.38;5024999;28;20041;-77
2022/01/20 06:17:49;;;;;;;25.25;12.18;;;;;;;-3.89;58.62;94383.56;5024679;28;20223;-77
2022/01/20 06:20:15;;;;;;;28.20;12.05;;;;;;;-3.87;58.77;94371.13;5024827;28;20235;-78
2022/01/20 06:22:41;;;;;;;31.23;12.75;;;;;;;-3.84;59.21;94375.91;5023409;28;20030;-77
2022/01/20 06:25:07;;;;;;;42.72;12.23;;;;;;;-3.81;59.14;94386.91;5024779;28;20328;-74
2022/01/20 06:27:34;;;;;;;46.28;15.15;;;;;;;-3.71;59.22;94364.59;5024758;28;20022;-73
2022/01/20 06:29:59;;;;;;;71.95;26.02;;;;;;;-3.64;58.80;94388.81;5024377;28;20026;-74
2022/01/20 06:32:25;;;;;;;64.13;22.98;;;;;;;-3.61;57.95;94395.38;5024602;28;20125;-77
2022/01/20 06:34:51;;;;;;;56.85;22.95;;;;;;;-3.53;57.74;94392.53;5024515;28;20308;-76
2022/01/20 06:37:16;;;;;;;74.30;25.25;;;;;;;-3.51;58.07;94380.06;5023091;28;20025;-76
2022/01/20 06:39:42;;;;;;;66.38;24.65;;;;;;;-3.44;57.98;94385.22;5024142;28;20253;-76
2022/01/20 06:42:07;;;;;;;72.00;25.45;;;;;;;-3.36;57.72;94377.13;5023084;28;20026;-76
2022/01/20 06:44:33;;;;;;;78.78;29.13;;;;;;;-3.27;57.54;94377.69;5024326;28;20037;-76
2022/01/20 06:46:58;;;;;;;63.65;24.98;;;;;;;-3.20;57.54;94385.44;5039392;28;20097;-76
2022/01/20 06:49:24;;;;;;;42.33;17.38;;;;;;;-3.12;57.32;94367.72;5023851;28;20091;-75
2022/01/20 06:51:49;;;;;;;40.42;14.18;;;;;;;-3.07;57.15;94369.69;5024157;28;20374;-75
2022/01/20 06:54:15;;;;;;;41.85;16.45;;;;;;;-3.01;57.36;94368.81;5023956;28;20339;-76
2022/01/20 06:56:41;;;;;;;37.85;16.10;;;;;;;-2.89;57.13;94361.06;5023951;28;20105;-76
2022/01/20 06:59:09;;;;;;;41.17;15.18;;;;;;;-2.87;56.92;94359.84;5023845;28;20022;-76
2022/01/20 07:01:34;;;;;;;27.55;12.07;;;;;;;-2.75;56.85;94366.94;5024202;28;20048;-76
2022/01/20 07:03:59;;;;;;;27.60;11.32;;;;;;;-2.65;56.54;94348.97;5023922;28;20332;-76
2022/01/20 07:06:26;;;;;;;33.92;10.65;;;;;;;-2.54;56.13;94374.34;5039098;28;20097;-77
2022/01/20 07:08:52;;;;;;;29.02;10.77;;;;;;;-2.44;55.80;94353.72;5023616;28;20022;-77
2022/01/20 07:11:17;;;;;;;27.33;10.00;;;;;;;-2.35;55.17;94361.25;5023542;28;20021;-76
2022/01/20 07:13:43;;;;;;;24.95;11.00;;;;;;;-2.28;55.46;94364.56;5038533;28;20034;-75
2022/01/20 07:16:08;;;;;;;19.23;9.15;;;;;;;-2.22;55.38;94372.34;5023528;28;20022;-76
2022/01/20 07:18:34;;;;;;;34.13;11.57;;;;;;;-2.13;54.95;94365.00;5023700;28;20022;-77
2022/01/20 07:20:59;;;;;;;18.92;9.25;;;;;;;-2.05;55.10;94361.28;5023502;28;20022;-76
2022/01/20 07:23:25;;;;;;;28.08;9.98;;;;;;;-1.98;54.75;94367.19;5023257;28;20020;-77
2022/01/20 07:25:50;;;;;;;30.27;11.00;;;;;;;-1.85;54.19;94353.16;5023288;28;20018;-76
2022/01/20 07:28:16;;;;;;;35.08;11.25;;;;;;;-1.77;54.18;94367.69;5023367;28;20018;-76
2022/01/20 07:30:41;;;;;;;133.55;51.13;;;;;;;-1.71;54.08;94362.41;5023420;28;20033;-77
2022/01/20 07:33:08;;;;;;;48.03;21.48;;;;;;;-1.63;53.75;94359.47;5023253;28;20021;-77
2022/01/20 07:35:34;;;;;;;25.33;12.48;;;;;;;-1.55;53.54;94363.53;5023481;28;20332;-82
2022/01/20 07:38:00;;;;;;;32.35;10.82;;;;;;;-1.46;53.00;94372.66;5023139;28;20105;-79
2022/01/20 07:40:25;;;;;;;39.88;11.88;;;;;;;-1.37;52.88;94372.34;5023034;28;20041;-79
2022/01/20 07:42:51;;;;;;;20.90;9.80;;;;;;;-1.31;52.46;94358.34;5023169;28;20331;-80
2022/01/20 07:45:17;;;;;;;41.72;12.40;;;;;;;-1.23;52.50;94348.34;5023875;28;20028;-79
2022/01/20 07:47:43;;;;;;;36.88;11.10;;;;;;;-1.17;52.20;94341.41;5023315;28;20030;-81
2022/01/20 07:50:09;;;;;;;38.03;12.13;;;;;;;-1.10;52.46;94336.88;5038350;28;20273;-80
2022/01/20 07:52:34;;;;;;;28.55;12.50;;;;;;;-0.99;51.68;94352.78;5023029;28;20059;-80
2022/01/20 07:55:00;;;;;;;27.05;10.88;;;;;;;-0.89;51.50;94358.25;5021632;28;20018;-80
2022/01/20 07:57:25;;;;;;;43.42;12.32;;;;;;;-0.82;50.88;94367.53;5022463;28;20224;-83
2022/01/20 07:59:50;;;;;;;27.27;9.55;;;;;;;-0.73;50.59;94372.44;5023115;28;20018;-83
2022/01/20 08:02:16;;;;;;;37.33;11.13;;;;;;;-0.66;50.16;94362.66;5022995;28;20092;-83
2022/01/20 08:04:42;;;;;;;31.05;10.45;;;;;;;-0.55;49.75;94364.47;5022782;28;20055;-85
2022/01/20 08:07:08;;;;;;;26.90;10.20;;;;;;;-0.51;49.65;94362.97;5038235;28;20018;-82
2022/01/20 08:09:34;;;;;;;31.27;9.85;;;;;;;-0.48;49.62;94374.78;5022921;28;20037;-85
2022/01/20 08:11:59;;;;;;;43.85;11.30;;;;;;;-0.41;49.39;94367.59;5023148;28;20367;-80
2022/01/20 08:14:25;;;;;;;25.40;10.15;;;;;;;-0.35;49.33;94379.75;5023131;28;20113;-90
2022/01/20 08:16:51;;;;;;;28.92;10.85;;;;;;;-0.27;48.82;94374.16;5039229;28;20018;-90
2022/01/20 08:19:16;;;;;;;36.30;9.65;;;;;;;-0.20;48.93;94368.81;5024127;28;20022;-89
2022/01/20 08:21:41;;;;;;;31.88;10.00;;;;;;;-0.11;48.48;94374.47;5024252;28;20351;-89
2022/01/20 08:24:07;;;;;;;33.10;10.45;;;;;;;-0.05;48.22;94374.31;5038978;28;20063;-87
2022/01/20 08:26:32;;;;;;;28.63;9.60;;;;;;;0.03;48.49;94359.25;5023657;28;20022;-86
2022/01/20 08:28:58;;;;;;;27.45;10.77;;;;;;;0.15;47.89;94366.03;5024044;28;20272;-90
2022/01/20 08:31:24;;;;;;;42.42;12.35;;;;;;;0.20;47.43;94365.31;5023963;28;20103;-91
2022/01/20 08:33:50;;;;;;;33.33;10.63;;;;;;;0.25;47.81;94352.31;5026161;28;20018;-86
2022/01/20 08:36:15;;;;;;;37.50;10.77;;;;;;;0.29;47.99;94357.88;5044950;28;20334;-84
2022/01/20 08:38:40;;;;;;;28.42;9.80;;;;;;;0.34;47.91;94350.09;5029030;28;20084;-82
2022/01/20 08:41:06;;;;;;;56.20;12.05;;;;;;;0.42;47.64;94354.94;5028098;28;20041;-87
2022/01/20 08:43:38;;;;;;;33.80;11.02;;;;;;;0.46;47.47;94342.16;5045316;28;20054;-88
2022/01/20 08:46:06;;;;;;;37.97;11.52;;;;;;;0.51;47.40;94356.16;5029883;28;20096;-90
2022/01/20 08:48:32;;;;;;;47.03;11.88;;;;;;;0.58;47.25;94351.53;5045317;28;20041;-90
2022/01/20 08:50:57;;;;;;;40.15;10.70;;;;;;;0.63;47.17;94352.66;5029728;28;20029;-86
2022/01/20 08:53:23;;;;;;;43.60;12.10;;;;;;;0.76;46.67;94354.97;5029533;28;20017;-92
2022/01/20 08:55:48;;;;;;;49.60;11.35;;;;;;;0.86;46.39;94347.25;5030019;28;20225;-86
2022/01/20 08:58:14;;;;;;;41.58;9.70;;;;;;;0.89;46.44;94346.75;5045020;28;20022;-88
2022/01/20 09:00:40;;;;;;;36.22;11.00;;;;;;;0.98;45.22;94345.31;5030135;28;20029;-88
2022/01/20 09:03:05;;;;;;;30.33;9.50;;;;;;;1.09;44.38;94348.09;5045612;28;20032;-92
2022/01/20 09:05:31;;;;;;;33.88;12.50;;;;;;;1.14;44.27;94354.22;5030249;28;20017;-89
2022/01/20 09:07:57;;;;;;;41.13;9.88;;;;;;;1.13;44.36;94347.34;5045128;28;20096;-89
2022/01/20 09:10:22;;;;;;;40.08;11.60;;;;;;;1.20;43.37;94349.81;5029579;28;20034;-88
2022/01/20 09:15:35;;;;;;;34.83;11.23;;;;;;;1.26;44.71;94340.94;5029938;28;20121;-89
2022/01/20 09:18:07;;;;;;;40.92;9.75;;;;;;;1.31;44.79;94346.28;5029759;28;20026;-89
2022/01/20 09:20:34;;;;;;;70.82;14.93;;;;;;;1.38;44.92;94352.16;5045152;28;20021;-88
2022/01/20 09:23:01;;;;;;;43.00;11.40;;;;;;;1.46;44.78;94343.06;5044752;28;20048;-90
2022/01/20 09:25:27;;;;;;;27.13;9.23;;;;;;;1.61;43.92;94339.84;5029895;28;20332;-91
2022/01/20 09:27:55;;;;;;;39.58;8.82;;;;;;;1.68;43.87;94329.13;5028808;28;20022;-89
2022/01/20 09:30:24;;;;;;;34.47;10.02;;;;;;;1.83;42.38;94329.28;5028578;28;20288;-90
2022/01/20 09:32:58;;;;;;;42.10;10.02;;;;;;;1.76;42.46;94324.22;5045241;28;20264;-89
2022/01/20 09:35:30;;;;;;;32.92;9.05;;;;;;;1.75;42.20;94317.41;5029701;28;20029;-89
2022/01/20 09:37:56;;;;;;;36.03;11.05;;;;;;;1.76;42.30;94308.47;5028536;28;20029;-89
2022/01/20 09:40:21;;;;;;;33.70;10.00;;;;;;;1.85;42.23;94318.53;5029381;28;20022;-89
2022/01/20 09:42:47;;;;;;;27.08;10.63;;;;;;;1.92;43.28;94306.78;5044780;28;20076;-87
2022/01/20 09:45:14;;;;;;;34.20;11.07;;;;;;;2.08;41.50;94304.31;5026863;28;20021;-87
2022/01/20 09:47:42;;;;;;;42.10;13.85;;;;;;;2.15;41.51;94307.53;5025868;28;20033;-85
2022/01/20 09:50:08;;;;;;;29.45;10.25;;;;;;;2.24;41.08;94310.50;5026494;28;20013;-87
2022/01/20 09:52:33;;;;;;;25.42;10.60;;;;;;;2.13;41.60;94301.72;5026354;28;20018;-87
2022/01/20 09:54:59;;;;;;;33.75;11.48;;;;;;;2.07;41.57;94297.47;5025155;28;20017;-89
2022/01/20 09:57:24;;;;;;;59.53;15.25;;;;;;;2.23;41.76;94285.25;5041650;28;20022;-89
2022/01/20 09:59:52;;;;;;;38.60;11.25;;;;;;;2.34;40.94;94282.47;5025329;28;20084;-89
2022/01/20 10:02:19;;;;;;;40.47;11.45;;;;;;;2.36;41.06;94271.66;5025943;28;20026;-85
2022/01/20 10:04:45;;;;;;;36.33;12.25;;;;;;;2.44;41.49;94263.31;5025828;28;20042;-89
2022/01/20 10:07:15;;;;;;;32.10;11.52;;;;;;;2.47;41.67;94260.19;5026268;28;20097;-88
2022/01/20 10:09:45;;;;;;;31.75;11.00;;;;;;;2.54;40.97;94255.47;5026551;28;20068;-90
2022/01/20 10:12:14;;;;;;;27.83;10.68;;;;;;;2.63;41.33;94245.31;5026257;28;20025;-88
2022/01/20 10:14:49;;;;;;;41.05;11.10;;;;;;;2.71;40.75;94244.03;5024969;28;20038;-89
2022/01/20 10:17:19;;;;;;;34.55;11.32;;;;;;;2.70;40.80;94237.97;5026086;28;20052;-89
2022/01/20 10:19:46;;;;;;;48.97;12.65;;;;;;;2.73;41.21;94237.47;5024759;28;20072;-88
2022/01/20 10:22:17;;;;;;;41.28;13.30;;;;;;;2.92;40.86;94227.28;5025882;28;20354;-88
2022/01/20 10:24:57;;;;;;;34.70;13.05;;;;;;;3.11;40.80;94227.63;5025767;28;20028;-88
2022/01/20 10:27:22;;;;;;;33.97;11.82;;;;;;;3.25;40.03;94216.63;5026045;28;20204;-87
2022/01/20 10:30:06;;;;;;;46.47;12.55;;;;;;;3.35;39.91;94216.69;5026114;28;20021;-89
2022/01/20 10:32:50;;;;;;;31.58;11.15;;;;;;;3.48;39.55;94218.03;5026016;28;20045;-89
2022/01/20 10:35:23;;;;;;;38.83;11.93;;;;;;;3.57;39.84;94213.84;5025672;28;20096;-89
2022/01/20 10:38:15;;;;;;;28.75;11.77;;;;;;;3.73;39.98;94214.69;5025865;28;20021;-86
2022/01/20 10:40:54;;;;;;;36.22;12.65;;;;;;;3.91;40.02;94203.63;5026259;28;20090;-92
2022/01/20 10:43:25;;;;;;;29.42;11.35;;;;;;;4.07;39.81;94196.53;5040795;28;20030;-91
2022/01/20 10:46:11;;;;;;;40.88;17.15;;;;;;;4.33;38.69;94196.50;5025286;28;20026;-91
2022/01/20 10:48:37;;;;;;;46.83;12.50;;;;;;;4.49;38.69;94190.13;5025593;28;20029;-91
2022/01/20 10:51:14;;;;;;;41.72;10.48;;;;;;;4.66;38.27;94179.31;5025154;28;20032;-89
2022/01/20 10:53:39;;;;;;;52.88;11.48;;;;;;;4.82;36.90;94180.03;5025546;28;20089;-89
2022/01/20 10:56:06;;;;;;;31.50;10.80;;;;;;;4.91;36.93;94173.16;5024698;28;20343;-90
2022/01/20 10:58:32;;;;;;;40.53;11.48;;;;;;;5.07;37.00;94171.25;5040364;28;20116;-90
2022/01/20 11:00:59;;;;;;;32.45;10.85;;;;;;;5.23;37.13;94159.56;5025217;28;20028;-90
2022/01/20 11:03:27;;;;;;;45.80;12.68;;;;;;;5.35;35.93;94161.88;5025027;28;20097;-89
2022/01/20 11:05:54;;;;;;;21.38;10.60;;;;;;;5.45;35.59;94160.22;5040205;28;20017;-89
2022/01/20 11:08:21;;;;;;;35.50;11.95;;;;;;;5.58;35.73;94155.13;5025223;28;20041;-89
2022/01/20 11:10:47;;;;;;;41.65;10.48;;;;;;;5.68;35.74;94164.88;5040234;28;20272;-90
2022/01/20 11:13:15;;;;;;;32.28;10.10;;;;;;;5.82;35.24;94160.53;5040519;28;20053;-90
2022/01/20 11:15:41;;;;;;;30.45;10.80;;;;;;;5.89;35.05;94143.56;5024874;28;20028;-90
2022/01/20 11:18:10;;;;;;;33.67;11.02;;;;;;;5.99;34.58;94140.88;5024731;28;20371;-90
2022/01/20 11:20:47;;;;;;;42.25;10.25;;;;;;;6.09;34.76;94143.44;5024734;28;20072;-91
2022/01/20 11:23:13;;;;;;;42.08;9.85;;;;;;;6.17;34.67;94131.47;5024513;28;20025;-90
2022/01/20 11:25:43;;;;;;;31.73;10.68;;;;;;;6.29;33.65;94129.22;5025083;28;20021;-90
2022/01/20 11:28:23;;;;;;;33.78;10.48;;;;;;;6.33;33.71;94119.66;5040132;28;20022;-90
2022/01/20 11:31:09;;;;;;;50.40;11.25;;;;;;;6.45;33.25;94103.38;5024763;28;20025;-90
2022/01/20 11:33:35;;;;;;;44.47;13.73;;;;;;;6.52;32.31;94103.84;5025228;28;20022;-90
2022/01/20 11:36:01;;;;;;;20.92;7.22;;;;;;;6.48;29.50;94110.00;5024969;28;20033;-90
2022/01/20 11:38:43;;;;;;;31.17;4.93;;;;;;;6.50;26.66;94113.94;5025089;28;20053;-91
2022/01/20 11:41:10;;;;;;;;;;;;;;;6.44;25.05;94112.41;5025496;28;20053;-90
2022/01/20 11:43:45;;;;;;;13.23;2.95;;;;;;;6.59;23.86;94106.16;5024006;28;19909;-89
2022/01/20 11:46:16;;;;;;;16.60;2.22;;;;;;;6.53;24.03;94117.88;5024351;28;20223;-89
2022/01/20 11:49:08;;;;;;;18.45;2.90;;;;;;;6.55;24.69;94103.25;5025424;28;20263;-90
2022/01/20 11:51:43;;;;;;;;;;;;;;;6.55;24.72;94105.91;5026071;28;20017;-90
2022/01/20 11:54:09;;;;;;;6.88;2.30;;;;;;;6.58;24.84;94102.72;5024832;28;19964;-89
2022/01/20 11:56:40;;;;;;;24.10;3.08;;;;;;;6.50;24.44;94111.28;5024613;28;20018;-88
2022/01/20 11:59:12;;;;;;;7.88;2.50;;;;;;;6.47;25.37;94095.94;5038332;28;20022;-85
2022/01/20 12:01:43;;;;;;;8.43;2.72;;;;;;;6.45;25.88;94086.72;5023955;28;20193;-86
2022/01/20 12:04:09;;;;;;;18.83;3.15;;;;;;;6.35;26.84;94077.81;5023713;28;20034;-88
2022/01/20 12:06:42;;;;;;;16.27;3.25;;;;;;;6.40;26.41;94080.38;5022748;28;20117;-89
2022/01/20 12:09:07;;;;;;;10.13;3.53;;;;;;;6.51;27.12;94085.59;5021815;28;20034;-86
2022/01/20 12:11:39;;;;;;;15.23;3.33;;;;;;;6.55;26.52;94092.66;5022488;28;20065;-88
2022/01/20 12:14:09;;;;;;;13.50;3.72;;;;;;;6.56;26.36;94088.97;5022397;28;20415;-85
2022/01/20 12:16:36;;;;;;;18.90;3.53;;;;;;;6.50;26.73;94079.50;5023539;28;20276;-87
2022/01/20 12:19:08;;;;;;;11.73;3.00;;;;;;;6.60;27.07;94083.91;5023313;28;20022;-87
2022/01/20 12:21:34;;;;;;;17.63;4.22;;;;;;;6.69;26.92;94076.13;5039094;28;20033;-89
2022/01/20 12:24:00;;;;;;;10.95;3.00;;;;;;;6.67;26.88;94079.03;5023605;28;20101;-89
2022/01/20 12:26:25;;;;;;;12.05;3.20;;;;;;;6.61;26.83;94096.88;5022631;28;20097;-88